createdAt,value
2023-04-05T00:00:37.149Z,2.15
2023-04-05T00:05:39.079Z,2.06
2023-04-05T00:10:41.142Z,2.17
2023-04-05T00:15:44.318Z,2.26
2023-04-05T00:20:45.998Z,2.26
2023-04-05T00:25:47.859Z,2.30
2023-04-05T00:30:51.997Z,2.24
2023-04-05T00:35:53.971Z,2.07
2023-04-05T00:40:55.843Z,1.98
2023-04-05T00:45:58.953Z,1.95
2023-04-05T00:51:00.791Z,1.87
2023-04-05T00:56:02.532Z,1.74
2023-04-05T01:01:14.023Z,1.63
2023-04-05T01:06:23.361Z,1.55
2023-04-05T01:11:26.213Z,1.55
2023-04-05T01:16:29.222Z,1.56
2023-04-05T01:22:13.866Z,1.45
2023-04-05T01:27:17.150Z,1.38
2023-04-05T01:32:25.186Z,1.44
2023-04-05T01:37:27.809Z,1.30
2023-04-05T01:42:29.665Z,1.32
2023-04-05T01:47:32.787Z,1.43
2023-04-05T01:52:34.549Z,1.52
2023-04-05T01:57:36.274Z,1.37
2023-04-05T02:02:39.476Z,1.21
2023-04-05T02:07:41.190Z,1.22
2023-04-05T02:12:45.210Z,1.22
2023-04-05T02:17:49.102Z,1.10
2023-04-05T02:22:51.746Z,1.02
2023-04-05T02:27:53.464Z,0.89
2023-04-05T02:32:58.006Z,0.75
2023-04-05T02:37:59.849Z,0.67
2023-04-05T02:43:01.970Z,0.60
2023-04-05T02:48:05.482Z,0.49
2023-04-05T02:53:07.403Z,0.45
2023-04-05T02:58:09.313Z,0.43
2023-04-05T03:03:17.916Z,0.39
2023-04-05T03:08:19.936Z,0.39
2023-04-05T03:13:32.677Z,0.37
2023-04-05T03:18:36.184Z,0.31
2023-04-05T03:23:43.141Z,0.34
2023-04-05T03:28:46.493Z,0.35
2023-04-05T03:33:50.427Z,0.17
2023-04-05T03:38:52.711Z,0.00
2023-04-05T03:43:56.581Z,-0.10
2023-04-05T03:49:00.443Z,-0.01
2023-04-05T03:54:02.168Z,0.02
2023-04-05T03:59:07.498Z,-0.09
2023-04-05T04:04:11.562Z,-0.17
2023-04-05T04:09:14.332Z,-0.21
2023-04-05T04:14:16.140Z,-0.22
2023-04-05T04:19:33.178Z,-0.52
2023-04-05T04:24:40.673Z,-0.59
2023-04-05T04:30:08.062Z,-0.54
2023-04-05T04:35:27.869Z,-0.42
2023-04-05T04:40:39.016Z,-0.43
2023-04-05T04:45:56.967Z,-0.46
2023-04-05T04:51:23.140Z,-0.48
2023-04-05T04:56:24.840Z,-0.43
2023-04-05T05:01:28.508Z,-0.37
2023-04-05T05:06:31.652Z,-0.36
2023-04-05T05:11:33.371Z,-0.29
2023-04-05T05:16:35.850Z,-0.23
2023-04-05T05:21:38.941Z,-0.05
2023-04-05T05:26:40.689Z,0.15
2023-04-05T05:31:42.385Z,0.23
2023-04-05T05:36:45.505Z,0.39
2023-04-05T05:41:47.660Z,0.62
2023-04-05T05:46:49.488Z,0.93
2023-04-05T05:51:52.891Z,1.15
2023-04-05T05:56:54.618Z,1.53
2023-04-05T06:01:56.497Z,2.95
2023-04-05T06:06:59.597Z,3.59
2023-04-05T06:12:01.317Z,3.13
2023-04-05T06:17:03.010Z,2.99
2023-04-05T06:22:06.042Z,2.63
2023-04-05T06:27:07.857Z,2.69
2023-04-05T06:32:09.588Z,2.87
2023-04-05T06:37:12.650Z,2.87
2023-04-05T06:42:14.384Z,3.00
2023-04-05T06:47:21.373Z,3.13
2023-04-05T06:52:24.569Z,3.28
2023-04-05T06:57:27.003Z,3.52
2023-04-05T07:02:28.711Z,4.16
2023-04-05T07:07:31.857Z,4.76
2023-04-05T07:12:33.536Z,6.91
2023-04-05T07:17:35.252Z,7.58
2023-04-05T07:22:38.283Z,11.93
2023-04-05T07:27:40.032Z,12.90
2023-04-05T07:32:41.707Z,12.89
2023-04-05T07:37:44.741Z,15.01
2023-04-05T07:42:46.419Z,16.96
2023-04-05T07:47:48.119Z,18.34
2023-04-05T07:52:51.291Z,20.24
2023-04-05T07:57:53.559Z,22.17
2023-04-05T08:02:56.253Z,24.98
2023-04-05T08:08:00.439Z,24.71
2023-04-05T08:13:02.137Z,22.37
2023-04-05T08:18:04.051Z,21.29
2023-04-05T08:23:07.770Z,23.94
2023-04-05T08:28:09.592Z,26.28
2023-04-05T08:33:11.504Z,26.46
2023-04-05T08:38:14.554Z,27.79
2023-04-05T08:43:20.590Z,28.40
2023-04-05T08:48:22.323Z,30.39
2023-04-05T08:53:25.359Z,30.89
2023-04-05T08:58:27.243Z,31.23
2023-04-05T09:03:31.376Z,31.62
2023-04-05T09:08:34.510Z,32.02
2023-04-05T09:13:36.241Z,32.54
2023-04-05T09:18:37.982Z,30.23
2023-04-05T09:23:41.892Z,30.12
2023-04-05T09:28:43.850Z,32.25
2023-04-05T09:33:45.699Z,28.07
2023-04-05T09:38:48.735Z,26.73
2023-04-05T09:43:50.596Z,27.88
2023-04-05T09:48:52.297Z,30.53
2023-04-05T09:53:59.723Z,31.97
2023-04-05T09:59:02.286Z,32.10
2023-04-05T10:04:04.109Z,32.85
2023-04-05T10:09:08.224Z,32.98
2023-04-05T10:14:09.943Z,33.76
2023-04-05T10:19:16.400Z,32.68
2023-04-05T10:24:29.336Z,31.96
2023-04-05T10:29:35.999Z,32.00
2023-04-05T10:34:42.322Z,28.76
2023-04-05T10:39:45.953Z,24.69
2023-04-05T10:44:51.503Z,24.80
2023-04-05T10:49:54.046Z,27.92
2023-04-05T10:54:58.988Z,27.17
2023-04-05T11:00:00.892Z,27.05
2023-04-05T11:05:04.764Z,22.19
2023-04-05T11:10:08.743Z,20.70
2023-04-05T11:15:28.295Z,20.72
2023-04-05T11:20:39.961Z,18.51
2023-04-05T11:25:47.454Z,17.43
2023-04-05T11:30:51.509Z,17.32
2023-04-05T11:36:00.597Z,16.52
2023-04-05T11:41:07.713Z,16.30
2023-04-05T11:46:09.710Z,16.07
2023-04-05T11:51:11.888Z,15.46
2023-04-05T11:56:16.048Z,14.11
2023-04-05T12:01:18.859Z,13.47
2023-04-05T12:06:22.107Z,13.25
2023-04-05T12:11:25.723Z,13.42
2023-04-05T12:16:29.285Z,13.32
2023-04-05T12:21:31.114Z,12.94
2023-04-05T12:26:35.941Z,13.19
2023-04-05T12:31:38.810Z,13.73
2023-04-05T12:36:43.933Z,13.42
2023-04-05T12:41:56.329Z,13.47
2023-04-05T12:47:00.595Z,13.31
2023-04-05T12:52:02.950Z,13.04
2023-04-05T12:57:08.916Z,13.18
2023-04-05T13:02:10.787Z,12.85
2023-04-05T13:07:12.499Z,12.82
2023-04-05T13:12:15.513Z,12.98
2023-04-05T13:17:17.205Z,13.52
2023-04-05T13:22:18.929Z,13.91
2023-04-05T13:27:22.572Z,14.07
2023-04-05T13:32:24.383Z,14.47
2023-04-05T13:37:26.450Z,14.80
2023-04-05T13:42:29.528Z,15.03
2023-04-05T13:47:31.255Z,15.05
2023-04-05T13:52:33.012Z,15.18
2023-04-05T13:57:36.059Z,15.11
2023-04-05T14:02:38.896Z,15.05
2023-04-05T14:07:40.736Z,14.70
2023-04-05T14:12:43.763Z,14.32
2023-04-05T14:17:45.785Z,14.43
2023-04-05T14:22:47.454Z,14.11
2023-04-05T14:27:50.549Z,13.73
2023-04-05T14:32:52.299Z,13.83
2023-04-05T14:37:53.997Z,13.87
2023-04-05T14:42:56.990Z,13.87
2023-04-05T14:47:58.730Z,13.39
2023-04-05T14:53:01.569Z,13.41
2023-04-05T14:58:04.607Z,13.34
2023-04-05T15:03:06.852Z,13.18
2023-04-05T15:08:08.813Z,13.09
2023-04-05T15:13:12.088Z,12.93
2023-04-05T15:18:13.923Z,12.69
2023-04-05T15:23:15.860Z,12.67
2023-04-05T15:28:18.970Z,12.50
2023-04-05T15:33:20.910Z,12.39
2023-04-05T15:38:22.601Z,12.37
2023-04-05T15:43:25.757Z,12.20
2023-04-05T15:48:27.503Z,12.09
2023-04-05T15:53:29.229Z,11.99
2023-04-05T15:58:32.253Z,11.91
2023-04-05T16:03:34.029Z,11.81
2023-04-05T16:08:35.727Z,11.67
2023-04-05T16:13:38.731Z,11.76
2023-04-05T16:18:40.476Z,11.69
2023-04-05T16:23:42.305Z,11.54
2023-04-05T16:28:45.417Z,11.53
2023-04-05T16:33:47.097Z,11.52
2023-04-05T16:38:48.852Z,11.58
2023-04-05T16:43:52.600Z,11.40
2023-04-05T16:48:54.256Z,11.34
2023-04-05T16:53:55.965Z,11.39
2023-04-05T16:58:59.090Z,11.36
2023-04-05T17:04:00.831Z,11.22
2023-04-05T17:09:03.505Z,11.17
2023-04-05T17:14:07.648Z,11.09
2023-04-05T17:19:09.390Z,10.85
2023-04-05T17:24:11.090Z,10.82
2023-04-05T17:29:14.196Z,10.80
2023-04-05T17:34:16.719Z,10.88
2023-04-05T17:39:18.387Z,10.91
2023-04-05T17:44:21.588Z,10.82
2023-04-05T17:49:23.280Z,10.75
2023-04-05T17:54:24.970Z,10.64
2023-04-05T17:59:28.070Z,10.54
2023-04-05T18:04:29.822Z,10.39
2023-04-05T18:09:32.188Z,10.21
2023-04-05T18:14:36.826Z,10.04
2023-04-05T18:19:39.772Z,9.84
2023-04-05T18:24:42.281Z,9.67
2023-04-05T18:29:46.614Z,9.46
2023-04-05T18:37:40.842Z,9.27
2023-04-05T18:43:37.284Z,9.20
2023-04-05T18:48:39.339Z,9.13
2023-04-05T18:53:41.129Z,9.10
2023-04-05T18:58:44.272Z,8.88
2023-04-05T19:03:46.152Z,8.73
2023-04-05T19:08:48.126Z,8.54
2023-04-05T19:13:52.361Z,8.28
2023-04-05T19:18:54.150Z,8.22
2023-04-05T19:23:56.039Z,8.14
2023-04-05T19:28:59.114Z,8.09
2023-04-05T19:34:01.288Z,8.00
2023-04-05T19:39:03.925Z,7.78
2023-04-05T19:44:10.108Z,7.60
2023-04-05T19:49:18.366Z,7.51
2023-04-05T19:54:20.207Z,7.30
2023-04-05T19:59:28.834Z,7.23
2023-04-05T20:04:34.291Z,7.13
2023-04-05T20:09:37.544Z,6.83
2023-04-05T20:14:41.583Z,6.67
2023-04-05T20:19:56.749Z,6.52
2023-04-05T20:24:58.412Z,6.27
2023-04-05T20:30:01.571Z,6.06
2023-04-05T20:35:05.279Z,5.86
2023-04-05T20:40:08.052Z,5.54
2023-04-05T20:45:11.734Z,5.47
2023-04-05T20:50:13.755Z,5.23
2023-04-05T20:55:15.717Z,5.28
2023-04-05T21:00:19.588Z,5.12
2023-04-05T21:05:21.397Z,4.86
2023-04-05T21:10:23.264Z,5.14
2023-04-05T21:15:31.088Z,5.11
2023-04-05T21:20:34.400Z,5.05
2023-04-05T21:25:36.146Z,5.02
2023-04-05T21:30:39.240Z,5.12
2023-04-05T21:35:40.996Z,4.93
2023-04-05T21:40:44.446Z,4.65
2023-04-05T21:45:47.641Z,4.55
2023-04-05T21:50:49.370Z,4.46
2023-04-05T21:55:51.131Z,4.34
2023-04-05T22:00:54.252Z,4.14
2023-04-05T22:05:56.193Z,3.98
2023-04-05T22:10:57.931Z,3.91
2023-04-05T22:16:01.242Z,3.87
2023-04-05T22:21:03.030Z,3.69
2023-04-05T22:26:04.782Z,3.83
2023-04-05T22:31:07.897Z,3.78
2023-04-05T22:36:09.933Z,3.66
2023-04-05T22:41:11.728Z,3.60
2023-04-05T22:46:14.854Z,3.76
2023-04-05T22:51:16.698Z,3.97
2023-04-05T22:56:21.284Z,3.86
2023-04-05T23:01:24.361Z,3.78
2023-04-05T23:06:26.241Z,3.46
2023-04-05T23:11:27.950Z,3.16
2023-04-05T23:16:30.988Z,2.97
2023-04-05T23:21:32.777Z,2.85
2023-04-05T23:26:34.530Z,2.70
2023-04-05T23:31:37.618Z,2.68
2023-04-05T23:36:39.345Z,2.64
2023-04-05T23:41:41.128Z,2.64
2023-04-05T23:46:44.239Z,2.55
2023-04-05T23:51:46.092Z,2.56
2023-04-05T23:56:48.218Z,2.44
